Time;durP1;ratioP1;P1;durP2;ratioP2;P2;SDS_P1;SDS_P2;PMS_P1;PMS_P2;Temp;Humidity;BMP_temperature;BMP_pressure;BME280_temperature;BME280_humidity;BME280_pressure;Samples;Min_cycle;Max_cycle;Signal;HPM_P1;HPM_P2
2022/11/26 00:00:17;;;;;;;13.13;12.03;;;10.90;35.40;;;;;;4964922;28;20410;-76
2022/11/26 00:02:44;;;;;;;12.90;12.00;;;10.90;35.20;;;;;;4963980;28;20206;-78
2022/11/26 00:05:12;;;;;;;13.03;11.73;;;10.90;35.60;;;;;;4965310;28;20461;-77
2022/11/26 00:07:39;;;;;;;13.47;12.30;;;10.80;35.50;;;;;;4962176;28;20425;-76
2022/11/26 00:10:14;;;;;;;12.77;11.87;;;10.80;35.70;;;;;;4965166;28;20414;-79
2022/11/26 00:12:40;;;;;;;12.90;12.03;;;10.80;36.00;;;;;;4964540;28;20437;-77
2022/11/26 00:15:18;;;;;;;12.17;11.33;;;10.80;36.20;;;;;;4965504;28;20414;-79
2022/11/26 00:17:43;;;;;;;12.77;11.73;;;10.80;36.10;;;;;;4968165;28;20685;-78
2022/11/26 00:20:09;;;;;;;13.07;11.97;;;10.60;37.50;;;;;;4973881;28;20418;-78
2022/11/26 00:22:44;;;;;;;12.03;11.03;;;10.60;37.40;;;;;;4972700;28;20194;-78
2022/11/26 00:25:16;;;;;;;12.63;11.63;;;10.50;38.30;;;;;;4970154;28;20205;-77
2022/11/26 00:27:42;;;;;;;12.30;11.40;;;10.50;38.20;;;;;;4966137;28;20441;-76
2022/11/26 00:30:16;;;;;;;12.70;11.50;;;10.60;38.00;;;;;;4969530;28;20414;-76
2022/11/26 00:32:42;;;;;;;12.27;11.40;;;10.60;37.70;;;;;;4964381;28;20194;-77
2022/11/26 00:35:07;;;;;;;11.10;10.33;;;10.70;37.60;;;;;;4964630;28;20428;-78
2022/11/26 00:37:41;;;;;;;11.80;10.90;;;10.70;37.20;;;;;;4963509;28;20191;-78
2022/11/26 00:40:21;;;;;;;12.60;11.67;;;10.70;37.30;;;;;;4963238;28;20171;-78
2022/11/26 00:42:47;;;;;;;11.30;10.20;;;10.70;37.10;;;;;;4962594;28;20807;-78
2022/11/26 00:45:15;;;;;;;12.30;11.10;;;10.70;37.00;;;;;;4958970;28;20544;-77
2022/11/26 00:47:41;;;;;;;10.53;9.83;;;10.80;36.90;;;;;;4963104;28;20921;-78
2022/11/26 00:50:12;;;;;;;10.37;9.53;;;10.80;37.30;;;;;;4960236;28;20433;-78
2022/11/26 00:52:37;;;;;;;11.07;10.20;;;10.70;37.30;;;;;;4965362;28;20202;-76
2022/11/26 00:55:09;;;;;;;9.97;9.17;;;10.70;37.40;;;;;;4964642;28;20410;-78
2022/11/26 00:57:35;;;;;;;10.63;9.73;;;10.60;38.00;;;;;;4962090;28;20175;-78
2022/11/26 01:00:00;;;;;;;12.00;11.10;;;10.50;38.20;;;;;;4960480;28;20866;-78
2022/11/26 01:02:26;;;;;;;12.43;11.43;;;10.60;38.00;;;;;;4960148;28;20281;-77
2022/11/26 01:04:51;;;;;;;11.77;10.77;;;10.50;38.00;;;;;;4960973;28;20179;-77
2022/11/26 01:07:17;;;;;;;11.30;10.40;;;10.40;38.70;;;;;;4960047;28;20174;-78
2022/11/26 01:09:45;;;;;;;8.90;8.40;;;10.40;38.80;;;;;;4961693;28;20174;-78
2022/11/26 01:12:13;;;;;;;11.20;10.30;;;10.50;38.90;;;;;;4963054;28;20197;-77
2022/11/26 01:14:38;;;;;;;11.77;10.87;;;10.50;38.90;;;;;;4961019;28;20517;-77
2022/11/26 01:17:08;;;;;;;12.30;11.10;;;10.60;38.50;;;;;;4962112;28;20979;-77
2022/11/26 01:19:35;;;;;;;11.10;10.20;;;10.60;38.10;;;;;;4962989;28;20186;-78
2022/11/26 01:22:00;;;;;;;10.30;9.40;;;10.50;39.10;;;;;;4962673;28;20521;-78
2022/11/26 01:24:26;;;;;;;10.33;9.33;;;10.40;39.30;;;;;;4960281;28;20843;-77
2022/11/26 01:26:51;;;;;;;10.17;9.40;;;10.50;39.80;;;;;;4960144;28;20218;-76
2022/11/26 01:29:18;;;;;;;9.20;8.50;;;10.50;40.10;;;;;;4960630;28;20201;-77
2022/11/26 01:31:44;;;;;;;9.70;8.90;;;10.50;39.40;;;;;;4958480;28;20707;-76
2022/11/26 01:34:10;;;;;;;8.67;8.07;;;10.30;41.30;;;;;;4960631;28;20410;-77
2022/11/26 01:36:38;;;;;;;9.47;8.67;;;10.10;41.70;;;;;;4961593;28;20963;-76
2022/11/26 01:39:24;;;;;;;7.67;7.23;;;10.00;42.20;;;;;;4960734;28;20505;-76
2022/11/26 01:42:18;;;;;;;9.07;8.27;;;10.00;42.20;;;;;;4958637;28;20468;-77
2022/11/26 01:44:44;;;;;;;9.10;8.30;;;10.10;42.70;;;;;;4958960;28;20437;-77
2022/11/26 01:47:26;;;;;;;9.27;8.40;;;10.00;42.60;;;;;;4956182;28;20469;-76
2022/11/26 01:50:29;;;;;;;9.77;9.17;;;10.20;42.70;;;;;;4957596;28;20531;-77
2022/11/26 01:53:02;;;;;;;11.67;9.70;;;10.40;42.00;;;;;;4957113;28;20840;-76
2022/11/26 01:55:53;;;;;;;11.27;10.17;;;10.60;41.40;;;;;;4960125;28;20505;-76
2022/11/26 01:58:26;;;;;;;11.67;10.37;;;10.70;40.30;;;;;;4953610;28;20431;-78
2022/11/26 02:00:51;;;;;;;10.83;10.10;;;10.70;40.00;;;;;;4959596;28;20516;-77
2022/11/26 02:03:18;;;;;;;11.33;10.40;;;10.80;39.50;;;;;;4961512;28;20496;-77
2022/11/26 02:05:53;;;;;;;11.47;10.63;;;10.90;38.90;;;;;;4958785;28;20202;-77
2022/11/26 02:08:19;;;;;;;10.60;9.80;;;11.00;38.60;;;;;;4959219;28;20425;-77
2022/11/26 02:10:44;;;;;;;11.27;10.47;;;11.00;38.30;;;;;;4958926;28;20545;-77
2022/11/26 02:13:10;;;;;;;11.57;10.63;;;11.10;38.10;;;;;;4959320;28;20185;-77
2022/11/26 02:15:47;;;;;;;11.67;10.60;;;11.00;38.10;;;;;;4961917;28;20190;-77
2022/11/26 02:18:13;;;;;;;11.63;10.73;;;11.00;38.20;;;;;;4959756;28;20547;-77
2022/11/26 02:21:06;;;;;;;10.57;9.80;;;11.10;38.20;;;;;;4961760;28;20406;-77
2022/11/26 02:24:15;;;;;;;10.90;10.20;;;11.00;38.20;;;;;;4958403;28;20496;-77
2022/11/26 02:26:56;;;;;;;12.70;11.73;;;11.00;38.10;;;;;;4957895;28;20560;-77
2022/11/26 02:29:43;;;;;;;12.17;11.40;;;11.00;38.10;;;;;;4962424;28;20418;-77
2022/11/26 02:32:15;;;;;;;13.63;12.43;;;11.00;37.80;;;;;;4960351;28;20438;-77
2022/11/26 02:35:14;;;;;;;12.67;11.73;;;10.90;37.50;;;;;;4959638;28;20824;-77
2022/11/26 02:37:48;;;;;;;13.30;12.07;;;10.70;39.10;;;;;;4960644;28;20410;-77
2022/11/26 02:40:14;;;;;;;11.90;10.77;;;10.70;38.80;;;;;;4961286;28;20418;-78
2022/11/26 02:42:39;;;;;;;11.37;10.57;;;10.70;38.50;;;;;;4960534;28;20445;-79
2022/11/26 02:45:10;;;;;;;11.53;10.60;;;10.80;38.60;;;;;;4957965;28;20430;-78
2022/11/26 02:47:39;;;;;;;11.10;10.40;;;10.80;38.30;;;;;;4960917;28;20175;-77
2022/11/26 02:50:17;;;;;;;10.87;9.90;;;10.90;38.40;;;;;;4958247;28;20473;-78
2022/11/26 02:52:43;;;;;;;12.03;11.03;;;10.80;38.40;;;;;;4959032;28;20453;-77
2022/11/26 02:55:11;;;;;;;11.47;10.47;;;10.90;38.30;;;;;;4958832;28;20438;-77
2022/11/26 02:57:46;;;;;;;11.47;10.70;;;10.90;38.20;;;;;;4959313;28;20485;-77
2022/11/26 03:00:14;;;;;;;11.00;10.23;;;10.90;38.10;;;;;;4959427;28;20942;-77
2022/11/26 03:02:44;;;;;;;11.47;10.47;;;10.90;38.00;;;;;;4957874;28;20533;-78
2022/11/26 03:05:13;;;;;;;12.10;11.20;;;10.90;37.90;;;;;;4959409;28;20394;-77
2022/11/26 03:07:39;;;;;;;11.17;10.47;;;11.00;38.00;;;;;;4959785;28;20462;-77
2022/11/26 03:10:05;;;;;;;10.73;10.13;;;11.00;37.90;;;;;;4957621;28;20426;-77
2022/11/26 03:12:30;;;;;;;10.60;10.00;;;11.00;37.90;;;;;;4959326;28;20448;-77
2022/11/26 03:14:56;;;;;;;11.13;10.23;;;11.00;38.10;;;;;;4959077;28;20501;-78
2022/11/26 03:17:22;;;;;;;11.83;11.13;;;11.00;38.20;;;;;;4961946;28;20178;-78
2022/11/26 03:19:47;;;;;;;12.50;11.73;;;11.00;38.20;;;;;;4958246;28;20788;-77
2022/11/26 03:22:14;;;;;;;11.13;10.50;;;11.00;39.20;;;;;;4962459;28;20197;-78
2022/11/26 03:24:40;;;;;;;11.97;11.17;;;11.00;39.80;;;;;;4960491;28;20185;-78
2022/11/26 03:27:05;;;;;;;12.30;11.23;;;11.00;39.70;;;;;;4957131;28;20465;-77
2022/11/26 03:29:32;;;;;;;11.93;11.20;;;11.00;39.90;;;;;;4957338;28;20418;-76
2022/11/26 03:31:57;;;;;;;12.77;11.40;;;11.00;40.50;;;;;;4957428;28;20205;-77
2022/11/26 03:34:24;;;;;;;11.60;10.80;;;11.00;39.80;;;;;;4955200;28;20425;-77
2022/11/26 03:36:49;;;;;;;11.67;10.97;;;11.00;40.00;;;;;;4959757;28;20186;-77
2022/11/26 03:39:15;;;;;;;11.07;10.27;;;11.00;40.00;;;;;;4957856;28;20430;-77
2022/11/26 03:41:44;;;;;;;11.80;11.00;;;11.00;40.00;;;;;;4959635;28;20749;-77
2022/11/26 03:44:13;;;;;;;12.60;11.70;;;11.00;40.00;;;;;;4958996;28;20189;-78
2022/11/26 03:46:39;;;;;;;12.23;11.43;;;11.00;40.30;;;;;;4957484;28;20476;-77
2022/11/26 03:49:05;;;;;;;13.20;12.10;;;11.00;40.20;;;;;;4961383;28;20781;-78
2022/11/26 03:51:31;;;;;;;12.23;11.43;;;11.00;40.30;;;;;;4961212;28;20465;-77
2022/11/26 03:53:56;;;;;;;11.83;10.83;;;10.90;40.50;;;;;;4961772;28;20414;-77
2022/11/26 03:56:22;;;;;;;11.83;10.93;;;10.90;40.50;;;;;;4962246;28;20187;-77
2022/11/26 03:58:47;;;;;;;11.13;10.43;;;10.90;40.50;;;;;;4962448;28;20205;-77
2022/11/26 04:01:13;;;;;;;11.93;11.00;;;11.00;40.60;;;;;;4959712;28;20788;-77
2022/11/26 04:03:39;;;;;;;14.17;10.73;;;10.90;40.60;;;;;;4961534;28;20713;-77
2022/11/26 04:06:05;;;;;;;10.93;10.23;;;10.90;40.60;;;;;;4958000;28;20210;-77
2022/11/26 04:08:31;;;;;;;12.30;11.50;;;10.90;40.70;;;;;;4960024;28;20445;-77
2022/11/26 04:10:57;;;;;;;12.37;11.37;;;10.80;40.80;;;;;;4960068;28;20609;-77
2022/11/26 04:13:23;;;;;;;12.40;11.50;;;10.60;41.80;;;;;;4960866;28;20410;-77
2022/11/26 04:15:48;;;;;;;10.83;10.23;;;10.60;42.10;;;;;;4958007;28;20171;-77
2022/11/26 04:18:14;;;;;;;10.20;9.73;;;10.70;42.30;;;;;;4956250;28;20178;-78
2022/11/26 04:20:40;;;;;;;12.30;11.60;;;10.80;41.90;;;;;;4959018;28;20183;-77
2022/11/26 04:23:06;;;;;;;13.03;10.60;;;11.00;41.10;;;;;;4962016;28;20249;-77
2022/11/26 04:25:31;;;;;;;12.57;11.43;;;11.10;40.20;;;;;;4963165;28;20253;-77
2022/11/26 04:27:57;;;;;;;11.40;10.70;;;11.10;40.00;;;;;;4968781;28;20187;-77
2022/11/26 04:30:23;;;;;;;11.50;10.50;;;11.20;39.80;;;;;;4965580;28;20182;-77
2022/11/26 04:32:49;;;;;;;11.10;10.43;;;11.20;39.00;;;;;;4967791;28;20221;-77
2022/11/26 04:35:14;;;;;;;10.20;9.60;;;11.10;39.30;;;;;;4968339;28;20410;-77
2022/11/26 04:37:40;;;;;;;11.27;10.57;;;11.00;40.40;;;;;;4967355;28;20179;-77
2022/11/26 04:40:07;;;;;;;11.50;10.90;;;10.90;40.80;;;;;;4966357;28;20265;-78
2022/11/26 04:42:33;;;;;;;11.73;10.93;;;10.70;42.20;;;;;;4966540;28;21148;-78
2022/11/26 04:44:58;;;;;;;11.90;10.93;;;10.70;42.20;;;;;;4967739;28;20420;-78
2022/11/26 04:47:24;;;;;;;11.30;10.40;;;10.70;42.20;;;;;;4969634;28;20179;-77
2022/11/26 04:49:49;;;;;;;11.23;10.43;;;10.60;42.10;;;;;;4970652;28;20241;-77
2022/11/26 04:52:15;;;;;;;10.27;9.67;;;10.60;42.10;;;;;;4969871;28;20599;-78
2022/11/26 04:54:40;;;;;;;11.07;10.27;;;10.60;42.60;;;;;;4970368;28;20182;-77
2022/11/26 04:57:06;;;;;;;10.40;9.80;;;10.70;42.20;;;;;;4971098;28;20540;-77
2022/11/26 04:59:31;;;;;;;13.07;10.00;;;10.90;42.10;;;;;;4969894;28;20174;-77
2022/11/26 05:01:58;;;;;;;10.87;10.17;;;10.60;41.40;;;;;;4973507;28;20197;-77
2022/11/26 05:04:24;;;;;;;11.27;10.50;;;10.50;40.70;;;;;;4972212;28;20175;-77
2022/11/26 05:06:50;;;;;;;9.90;9.40;;;10.40;40.80;;;;;;4968942;28;20461;-77
2022/11/26 05:09:15;;;;;;;10.40;9.37;;;10.40;42.00;;;;;;4971520;28;20836;-77
2022/11/26 05:11:41;;;;;;;10.00;9.47;;;10.50;41.30;;;;;;4971304;28;20209;-78
2022/11/26 05:14:06;;;;;;;10.40;9.40;;;10.40;41.50;;;;;;4972513;28;20540;-78
2022/11/26 05:16:32;;;;;;;9.93;9.43;;;10.40;42.00;;;;;;4974555;28;20547;-77
2022/11/26 05:18:57;;;;;;;10.73;9.93;;;10.50;41.60;;;;;;4973006;28;20186;-77
2022/11/26 05:21:23;;;;;;;11.30;10.40;;;10.60;41.10;;;;;;4973151;28;20285;-77
2022/11/26 05:23:49;;;;;;;11.53;10.63;;;10.70;40.60;;;;;;4972761;28;20175;-78
2022/11/26 05:26:14;;;;;;;10.33;9.63;;;10.70;40.00;;;;;;4973464;28;20602;-77
2022/11/26 05:28:40;;;;;;;11.10;10.40;;;10.30;40.50;;;;;;4974133;28;20175;-78
2022/11/26 05:31:05;;;;;;;11.23;10.40;;;10.20;41.80;;;;;;4973344;28;20195;-78
2022/11/26 05:33:31;;;;;;;11.53;10.83;;;10.00;41.60;;;;;;4975350;28;20175;-78
2022/11/26 05:35:56;;;;;;;11.83;10.83;;;9.70;43.60;;;;;;4980238;28;20190;-78
2022/11/26 05:38:22;;;;;;;12.87;12.00;;;9.50;44.40;;;;;;4985868;28;20179;-78
2022/11/26 05:40:48;;;;;;;11.03;10.13;;;9.20;45.20;;;;;;4975177;28;20230;-78
2022/11/26 05:43:13;;;;;;;11.13;10.37;;;9.00;46.60;;;;;;4975046;28;20181;-78
2022/11/26 05:45:39;;;;;;;11.30;10.60;;;9.10;46.80;;;;;;4972023;28;20194;-77
2022/11/26 05:48:04;;;;;;;11.13;10.53;;;9.30;46.30;;;;;;4972020;28;20179;-76
2022/11/26 05:50:31;;;;;;;10.90;10.03;;;9.50;45.10;;;;;;4971948;28;20179;-78
2022/11/26 05:52:57;;;;;;;11.60;10.70;;;9.70;44.20;;;;;;4972545;28;20238;-77
2022/11/26 05:55:23;;;;;;;11.80;10.90;;;9.80;44.10;;;;;;4972611;28;20445;-77
2022/11/26 05:57:48;;;;;;;11.60;10.90;;;9.90;42.50;;;;;;4972887;28;20190;-77
2022/11/26 06:00:14;;;;;;;11.73;11.03;;;10.00;41.60;;;;;;4971720;28;20189;-77
2022/11/26 06:02:40;;;;;;;11.20;10.50;;;10.10;41.10;;;;;;4973180;28;20230;-77
2022/11/26 06:05:06;;;;;;;10.90;10.10;;;10.20;40.20;;;;;;4970699;28;20461;-77
2022/11/26 06:07:32;;;;;;;10.90;10.03;;;10.20;39.50;;;;;;4973490;28;20175;-77
2022/11/26 06:09:57;;;;;;;11.30;10.47;;;10.30;39.10;;;;;;4972375;28;20416;-77
2022/11/26 06:12:23;;;;;;;11.33;10.50;;;10.20;38.10;;;;;;4975366;28;20199;-78
2022/11/26 06:14:49;;;;;;;9.80;9.30;;;9.80;40.90;;;;;;4974207;28;20702;-78
2022/11/26 06:17:14;;;;;;;11.97;11.13;;;9.60;41.50;;;;;;4974749;28;20182;-78
2022/11/26 06:19:40;;;;;;;10.90;10.10;;;9.30;42.10;;;;;;4973041;28;20232;-78
2022/11/26 06:22:06;;;;;;;10.87;10.07;;;9.20;43.00;;;;;;4974036;28;20202;-79
2022/11/26 06:24:32;;;;;;;11.77;10.80;;;9.30;43.90;;;;;;4973440;28;20240;-78
2022/11/26 06:26:57;;;;;;;11.70;11.10;;;9.50;42.50;;;;;;4974112;28;20703;-80
2022/11/26 06:29:23;;;;;;;11.50;10.80;;;9.60;42.20;;;;;;4973634;28;20260;-78
2022/11/26 06:31:48;;;;;;;13.10;12.00;;;9.70;41.70;;;;;;4974481;28;20692;-79
2022/11/26 06:34:15;;;;;;;12.83;11.80;;;9.80;41.10;;;;;;4973516;28;20198;-78
2022/11/26 06:36:41;;;;;;;11.80;10.93;;;9.90;40.80;;;;;;4973565;28;20189;-79
2022/11/26 06:39:08;;;;;;;11.50;10.80;;;10.00;39.40;;;;;;4973905;28;20787;-78
2022/11/26 06:41:33;;;;;;;11.93;11.20;;;10.10;38.80;;;;;;4970940;28;20917;-79
2022/11/26 06:43:59;;;;;;;12.30;11.27;;;10.10;38.50;;;;;;4973444;28;20450;-78
2022/11/26 06:46:25;;;;;;;11.73;11.03;;;10.20;38.50;;;;;;4975188;28;20687;-77
2022/11/26 06:48:50;;;;;;;13.03;11.73;;;10.20;37.90;;;;;;4971791;28;20448;-77
2022/11/26 06:51:19;;;;;;;11.57;10.87;;;10.20;37.90;;;;;;4972754;28;20266;-77
2022/11/26 06:53:45;;;;;;;16.37;14.93;;;9.90;38.60;;;;;;4977700;28;20186;-79
2022/11/26 06:56:12;;;;;;;12.20;11.40;;;9.50;40.30;;;;;;4980420;28;20456;-79
2022/11/26 06:58:38;;;;;;;14.00;12.77;;;9.20;41.60;;;;;;4976703;28;21043;-78
2022/11/26 07:01:13;;;;;;;13.37;12.10;;;9.00;41.70;;;;;;4976262;28;20473;-78
2022/11/26 07:03:38;;;;;;;14.90;13.60;;;9.00;42.10;;;;;;4975246;28;20189;-78
2022/11/26 07:06:04;;;;;;;15.87;14.50;;;8.90;42.80;;;;;;4976385;28;20454;-78
2022/11/26 07:08:30;;;;;;;14.17;13.37;;;8.70;43.60;;;;;;4975345;28;20641;-78
2022/11/26 07:10:55;;;;;;;15.60;14.37;;;8.80;43.40;;;;;;4975863;28;20271;-78
2022/11/26 07:13:21;;;;;;;13.33;12.53;;;8.70;43.40;;;;;;4974912;28;20167;-78
2022/11/26 07:15:46;;;;;;;14.80;13.57;;;8.60;44.10;;;;;;4978782;28;20269;-79
2022/11/26 07:18:12;;;;;;;14.30;13.27;;;8.60;44.30;;;;;;4981493;28;20560;-79
2022/11/26 07:20:37;;;;;;;13.00;12.13;;;8.60;44.20;;;;;;4963120;28;20248;-78
2022/11/26 07:23:03;;;;;;;15.30;14.30;;;8.50;44.30;;;;;;4990569;28;20179;-78
2022/11/26 07:25:29;;;;;;;18.73;17.30;;;8.40;44.50;;;;;;4974021;28;20199;-78
2022/11/26 07:27:55;;;;;;;17.80;16.53;;;8.30;45.10;;;;;;4973919;28;20189;-78
2022/11/26 07:30:20;;;;;;;17.17;16.00;;;8.40;45.90;;;;;;4974998;28;20485;-79
2022/11/26 07:32:46;;;;;;;17.03;15.63;;;8.50;45.10;;;;;;4975786;28;20194;-79
2022/11/26 07:35:38;;;;;;;15.87;14.70;;;8.60;45.10;;;;;;4974237;28;20551;-78
2022/11/26 07:38:04;;;;;;;15.40;14.33;;;8.40;44.50;;;;;;4972648;28;20316;-78
2022/11/26 07:40:32;;;;;;;14.50;13.40;;;8.40;46.10;;;;;;4974139;28;20718;-80
2022/11/26 07:43:01;;;;;;;16.00;14.80;;;8.60;45.70;;;;;;4982925;28;20551;-79
2022/11/26 07:45:26;;;;;;;15.70;14.60;;;8.80;46.30;;;;;;4985463;28;20484;-79
2022/11/26 07:47:52;;;;;;;14.23;13.00;;;9.00;44.60;;;;;;4973495;28;20488;-79
2022/11/26 07:50:17;;;;;;;14.53;13.40;;;8.90;44.70;;;;;;4972582;28;20557;-79
2022/11/26 07:52:43;;;;;;;15.33;14.10;;;8.70;45.30;;;;;;4972815;28;20214;-80
2022/11/26 07:55:09;;;;;;;13.27;12.20;;;8.50;45.70;;;;;;4972980;28;20238;-79
2022/11/26 07:57:35;;;;;;;13.43;12.37;;;8.30;46.10;;;;;;4979270;28;20193;-78
2022/11/26 08:00:00;;;;;;;14.00;12.90;;;8.20;47.30;;;;;;4976973;28;20410;-80
2022/11/26 08:02:26;;;;;;;12.90;11.87;;;8.20;47.50;;;;;;4977045;28;20190;-78
2022/11/26 08:04:51;;;;;;;14.53;13.53;;;8.40;47.10;;;;;;4975607;28;20193;-79
2022/11/26 08:07:17;;;;;;;15.83;14.83;;;8.50;46.30;;;;;;4977961;28;20206;-79
2022/11/26 08:09:42;;;;;;;15.00;14.00;;;8.50;46.20;;;;;;4978325;28;20192;-77
2022/11/26 08:12:08;;;;;;;17.00;15.70;;;8.60;46.40;;;;;;4977739;28;20233;-80
2022/11/26 08:14:33;;;;;;;15.73;14.63;;;8.60;46.20;;;;;;4976894;28;20190;-80
2022/11/26 08:16:59;;;;;;;13.70;12.60;;;8.70;46.00;;;;;;4976154;28;20193;-79
2022/11/26 08:19:25;;;;;;;15.13;14.00;;;8.70;46.30;;;;;;4976368;28;20183;-77
2022/11/26 08:21:50;;;;;;;17.50;15.87;;;8.70;46.50;;;;;;4973542;28;20688;-77
2022/11/26 08:24:18;;;;;;;14.07;12.97;;;8.80;46.30;;;;;;4976681;28;20190;-77
2022/11/26 08:26:44;;;;;;;14.60;13.70;;;8.90;46.10;;;;;;4976260;28;20206;-78
2022/11/26 08:29:10;;;;;;;13.87;13.00;;;8.80;46.20;;;;;;4978303;28;20927;-80
2022/11/26 08:31:35;;;;;;;14.60;13.70;;;8.90;46.10;;;;;;4977069;28;20438;-80
2022/11/26 08:34:02;;;;;;;14.80;13.70;;;9.00;45.40;;;;;;4978372;28;20968;-81
2022/11/26 08:36:29;;;;;;;13.30;12.47;;;8.90;45.40;;;;;;4978616;28;20196;-79
2022/11/26 08:38:55;;;;;;;13.20;12.50;;;9.00;45.20;;;;;;4978289;28;20418;-79
2022/11/26 08:41:21;;;;;;;13.43;12.63;;;8.90;45.60;;;;;;4976220;28;20484;-79
2022/11/26 08:43:47;;;;;;;13.33;12.53;;;8.80;45.70;;;;;;4977620;28;20453;-78
2022/11/26 08:46:12;;;;;;;14.27;13.33;;;8.90;46.10;;;;;;4978385;28;20461;-78
2022/11/26 08:48:38;;;;;;;14.20;13.13;;;9.10;46.00;;;;;;4976687;28;20744;-78
2022/11/26 08:51:10;;;;;;;16.03;14.93;;;9.10;44.80;;;;;;4970040;28;20680;-79
2022/11/26 08:53:39;;;;;;;16.77;15.37;;;9.20;45.60;;;;;;4977050;28;20170;-80
2022/11/26 08:56:08;;;;;;;18.30;16.60;;;9.40;45.00;;;;;;4973705;28;20430;-78
2022/11/26 08:58:36;;;;;;;16.90;15.40;;;9.70;44.10;;;;;;4974041;28;20420;-77
2022/11/26 09:01:23;;;;;;;17.73;16.53;;;9.80;43.30;;;;;;4972402;28;20438;-78
2022/11/26 09:03:50;;;;;;;16.37;15.17;;;10.00;41.60;;;;;;4972347;28;20445;-77
2022/11/26 09:06:16;;;;;;;15.50;14.50;;;10.20;40.90;;;;;;4973433;28;20548;-78
2022/11/26 09:11:27;;;;;;;13.90;13.10;;;10.50;39.30;;;;;;4979572;28;20556;-78
2022/11/26 09:13:53;;;;;;;15.43;14.20;;;10.40;38.90;;;;;;4976561;28;20437;-78
2022/11/26 09:16:21;;;;;;;15.87;14.57;;;10.40;39.70;;;;;;4980805;28;20426;-78
2022/11/26 09:18:47;;;;;;;14.70;13.60;;;10.30;40.80;;;;;;4986420;28;20422;-79
2022/11/26 09:21:14;;;;;;;14.83;13.93;;;10.10;40.70;;;;;;4978895;28;20864;-77
2022/11/26 09:23:39;;;;;;;15.80;14.67;;;10.00;41.60;;;;;;4979361;28;20183;-78
2022/11/26 09:26:05;;;;;;;14.53;13.73;;;9.90;41.50;;;;;;4975930;28;20472;-78
2022/11/26 09:28:30;;;;;;;15.07;14.07;;;9.80;42.20;;;;;;4977404;28;20182;-78
2022/11/26 09:31:00;;;;;;;14.53;13.43;;;9.90;42.50;;;;;;4978655;28;20315;-78
2022/11/26 09:33:27;;;;;;;13.47;12.60;;;10.10;40.80;;;;;;4975912;28;20266;-78
2022/11/26 09:35:52;;;;;;;12.70;12.00;;;10.20;39.70;;;;;;4974840;28;20798;-79
2022/11/26 09:38:18;;;;;;;12.87;11.97;;;10.30;39.60;;;;;;4974453;28;20509;-79
2022/11/26 09:41:02;;;;;;;13.33;12.40;;;10.10;38.90;;;;;;4976285;28;20193;-79
2022/11/26 09:43:49;;;;;;;13.67;12.83;;;10.00;38.90;;;;;;4979159;28;20186;-79
2022/11/26 09:46:19;;;;;;;14.20;13.07;;;9.90;40.20;;;;;;4979487;28;20549;-79
2022/11/26 09:48:44;;;;;;;13.70;12.57;;;10.00;40.00;;;;;;4976851;28;20418;-79
2022/11/26 09:51:13;;;;;;;12.90;12.00;;;10.10;39.60;;;;;;4977787;28;20541;-79
2022/11/26 09:53:44;;;;;;;12.37;11.47;;;10.00;39.60;;;;;;4975949;28;20191;-80
2022/11/26 09:56:29;;;;;;;11.97;11.20;;;10.10;40.50;;;;;;4975792;28;20437;-79
2022/11/26 09:59:01;;;;;;;12.50;11.77;;;10.30;39.40;;;;;;4979143;28;20946;-79
2022/11/26 10:01:29;;;;;;;12.17;11.23;;;10.50;38.90;;;;;;4977191;28;20497;-78
2022/11/26 10:07:06;;;;;;;13.23;12.40;;;10.30;39.20;;;;;;4818429;26;21058;-53
2022/11/26 10:09:53;;;;;;;14.03;12.97;;;10.50;38.80;;;;;;4988525;28;20500;-53
2022/11/26 10:12:46;;;;;;;14.20;12.87;;;10.50;39.10;;;;;;4992314;28;20409;-57
2022/11/26 10:15:15;;;;;;;13.23;12.20;;;10.60;38.00;;;;;;4975321;28;20422;-53
2022/11/26 10:18:03;;;;;;;12.53;11.77;;;10.50;38.10;;;;;;4986720;28;20413;-54
2022/11/26 10:21:01;;;;;;;15.07;13.60;;;10.40;38.50;;;;;;4989223;28;20411;-52
2022/11/26 10:23:49;;;;;;;14.37;12.97;;;10.40;38.00;;;;;;4991068;28;20405;-55
2022/11/26 10:26:31;;;;;;;13.73;12.53;;;10.40;39.10;;;;;;4990449;28;20551;-55
2022/11/26 10:29:18;;;;;;;13.83;12.83;;;10.60;38.90;;;;;;4989238;28;21138;-56
2022/11/26 10:31:46;;;;;;;13.00;12.20;;;10.70;38.20;;;;;;4989545;28;20421;-55
2022/11/26 10:34:27;;;;;;;15.67;14.57;;;10.70;37.00;;;;;;4989307;28;20410;-56
2022/11/26 10:36:52;;;;;;;14.73;13.50;;;10.70;37.40;;;;;;4987765;28;20443;-54
2022/11/26 10:39:19;;;;;;;13.53;12.47;;;10.80;36.20;;;;;;4987985;28;20796;-54
2022/11/26 10:41:46;;;;;;;12.87;11.87;;;10.90;36.10;;;;;;4987980;28;20208;-55
2022/11/26 10:44:28;;;;;;;13.33;12.37;;;10.80;36.90;;;;;;4988196;28;20465;-51
2022/11/26 10:46:54;;;;;;;14.00;12.90;;;11.00;36.80;;;;;;4989172;28;20469;-54
2022/11/26 10:49:25;;;;;;;13.30;12.43;;;11.00;36.50;;;;;;4989717;28;20409;-54
2022/11/26 10:51:54;;;;;;;14.80;13.70;;;11.10;35.70;;;;;;4988799;28;20473;-54
2022/11/26 10:54:34;;;;;;;13.07;11.97;;;11.00;35.90;;;;;;4989972;28;20417;-52
2022/11/26 10:57:09;;;;;;;14.50;13.43;;;11.00;35.40;;;;;;4989709;28;20452;-58
2022/11/26 10:59:50;;;;;;;13.50;12.80;;;10.90;35.90;;;;;;4990177;28;20983;-57
2022/11/26 11:02:18;;;;;;;14.13;13.27;;;10.90;35.40;;;;;;4991420;28;20852;-57
2022/11/26 11:04:46;;;;;;;13.17;11.83;;;11.00;35.40;;;;;;4986798;28;20484;-58
2022/11/26 11:07:37;;;;;;;13.50;12.60;;;11.10;36.10;;;;;;4990183;28;20456;-57
2022/11/26 11:10:09;;;;;;;12.87;12.17;;;11.20;35.80;;;;;;4989061;28;20409;-54
2022/11/26 11:12:44;;;;;;;13.70;12.90;;;11.30;36.00;;;;;;4990623;28;20419;-52
2022/11/26 11:15:31;;;;;;;14.77;13.77;;;11.30;36.20;;;;;;4990865;28;20411;-54
2022/11/26 11:18:13;;;;;;;13.90;13.17;;;11.40;35.80;;;;;;4990683;28;20443;-53
2022/11/26 11:20:42;;;;;;;14.33;12.97;;;11.40;36.00;;;;;;4990007;28;20917;-53
2022/11/26 11:23:11;;;;;;;13.70;12.60;;;11.40;35.80;;;;;;4989183;28;20445;-54
2022/11/26 11:25:40;;;;;;;14.07;13.20;;;11.20;36.20;;;;;;4989957;28;20495;-55
2022/11/26 11:28:12;;;;;;;13.97;12.77;;;11.10;37.30;;;;;;4989411;28;20405;-54
2022/11/26 11:30:39;;;;;;;13.77;12.87;;;11.10;36.20;;;;;;4992814;28;20409;-55
2022/11/26 11:33:18;;;;;;;13.67;12.67;;;11.10;35.30;;;;;;4994284;28;20413;-56
2022/11/26 11:35:55;;;;;;;13.53;12.50;;;11.20;35.60;;;;;;4992987;28;20412;-54
2022/11/26 11:38:23;;;;;;;13.27;12.37;;;11.30;35.20;;;;;;4994863;28;20830;-55
2022/11/26 11:40:49;;;;;;;14.33;13.10;;;11.30;34.70;;;;;;4994687;28;20503;-54
2022/11/26 11:43:18;;;;;;;14.67;13.63;;;11.40;34.80;;;;;;4995307;28;20421;-55
2022/11/26 11:46:14;;;;;;;12.40;11.70;;;11.40;35.50;;;;;;4994568;28;20475;-54
2022/11/26 11:48:45;;;;;;;14.23;13.17;;;11.40;35.30;;;;;;4993962;28;20521;-54
2022/11/26 11:51:26;;;;;;;14.00;12.93;;;11.50;34.80;;;;;;4992063;28;20455;-58
2022/11/26 11:54:19;;;;;;;15.33;14.00;;;11.60;34.20;;;;;;4987159;28;20420;-58
2022/11/26 11:56:57;;;;;;;14.23;13.23;;;11.60;34.00;;;;;;4987595;28;20417;-54
2022/11/26 11:59:35;;;;;;;12.70;11.90;;;11.60;33.10;;;;;;4991812;28;20417;-51
2022/11/26 12:02:25;;;;;;;13.23;12.33;;;11.60;33.80;;;;;;4992593;28;20409;-54
2022/11/26 12:05:04;;;;;;;13.40;12.40;;;11.50;33.60;;;;;;4989782;28;20429;-52
2022/11/26 12:07:39;;;;;;;13.23;12.20;;;11.50;33.00;;;;;;4991006;28;20463;-51
2022/11/26 12:10:21;;;;;;;14.13;12.93;;;11.60;33.80;;;;;;4994733;28;20447;-52
2022/11/26 12:12:53;;;;;;;12.97;11.97;;;11.70;33.00;;;;;;4994374;28;20483;-53
2022/11/26 12:15:41;;;;;;;13.63;12.33;;;11.70;33.00;;;;;;4992956;28;20417;-54
2022/11/26 12:18:22;;;;;;;12.30;11.30;;;11.80;33.10;;;;;;4992467;28;20413;-58
2022/11/26 12:21:00;;;;;;;12.60;11.60;;;11.90;32.90;;;;;;4989519;28;20420;-58
2022/11/26 12:23:28;;;;;;;12.63;11.50;;;11.90;32.10;;;;;;4990903;28;20413;-59
2022/11/26 12:26:14;;;;;;;12.47;11.57;;;11.90;32.00;;;;;;4994134;28;20456;-59
2022/11/26 12:28:50;;;;;;;13.13;11.97;;;11.90;32.10;;;;;;4990824;28;20455;-58
2022/11/26 12:31:22;;;;;;;12.33;11.33;;;12.00;32.60;;;;;;4993575;28;20413;-58
2022/11/26 12:33:51;;;;;;;12.33;11.60;;;12.00;32.50;;;;;;4993314;28;20416;-58
2022/11/26 12:36:23;;;;;;;13.47;12.13;;;12.00;32.00;;;;;;4992181;28;20440;-58
2022/11/26 12:38:54;;;;;;;11.87;10.90;;;12.10;32.20;;;;;;4992075;28;20872;-58
2022/11/26 12:41:30;;;;;;;12.03;11.27;;;12.00;32.00;;;;;;4993533;28;20487;-59
2022/11/26 12:44:04;;;;;;;10.70;10.00;;;12.00;31.40;;;;;;4992527;28;20521;-54
2022/11/26 12:47:14;;;;;;;11.17;10.57;;;12.00;31.00;;;;;;4992907;28;20461;-54
2022/11/26 12:50:00;;;;;;;12.17;11.37;;;12.00;31.00;;;;;;4988218;28;20797;-55